Terminal Aerodrome Forecast
Issued by NWS

Home | Current Version | Previous Version | Graphics & Text | Print | Product List | Glossary On
Versions: 1 2 3 4 5 6 7 8 9 10 11 12 13 14 15 16 17 18 19 20 21 22 23
000
FTUS43 KLSX 161400 AAA
TAFSUS
TAF AMD
KSUS 161406Z 1614/1712 06005KT 5SM BR BKN005 OVC012
     FM161500 03005KT P6SM BKN018
     FM161700 03005KT P6SM SCT025
     FM170000 00000KT P6SM SCT250=

USA.gov is the U.S. government's official web portal to all federal, state and local government web resources and services.